Estación Meteorológica Peña el Pijo (Robertgarden) [ 12/16/19 00:34:55 CET ]

Fecha Hora Presion(HPa) Temp (°C) Humedad % Rocio (°C) Viento ( m/s) Direccion Lluvia 1Hora(mm) Lluvia 24H(mm) LLuvia Total(mm)
2019-Feb-18 01:01:34 1010.000 0.1 81 -2.8         183.37
2019-Feb-18 02:01:49 1010.000 -0.1 82 -2.8         183.37
2019-Feb-18 03:03:24 1009.400 0.6 83 -2.0         183.37
2019-Feb-18 04:08:06 1009.000 1.0 84 -1.5         183.37
2019-Feb-18 05:01:46 1008.400 0.6 85 -1.7         183.37
2019-Feb-18 06:01:55 1008.600 -0.1 85 -2.3         183.37
2019-Feb-18 07:02:02 1008.300 -0.6 86 -2.6         183.37
2019-Feb-18 08:01:33 1008.200 -1.1 86 -3.1         183.37
2019-Feb-18 09:01:32 1008.600 -0.2 86 -2.2         183.37
2019-Feb-18 10:01:42 1008.700 3.6 86 1.5         183.37
2019-Feb-18 11:01:50 1008.200 7.8 69 2.5 1.6 ENE     183.37
2019-Feb-18 12:01:46 1007.700 13.6 48 2.8         183.37
2019-Feb-18 13:01:39 1007.400 13.1 39 -0.6         183.37
2019-Feb-18 14:01:50 1006.900 13.6 40 0.2         183.37
2019-Feb-18 15:01:56 1006.400 13.2 42 0.5 6.0 N     183.37
2019-Feb-18 16:01:32 1006.300 12.8 44 0.8         183.37
2019-Feb-18 17:01:25 1006.200 11.9 47 0.9 2.0 ENE     183.37
2019-Feb-18 18:01:46 1006.200 9.8 55 1.2         183.37
2019-Feb-18 19:01:54 1006.700 8.1 62 1.2         183.37
2019-Feb-18 20:01:48 1007.400 7.3 69 2.0         183.37
2019-Feb-18 21:01:50 1007.700 5.0 71 0.2         183.37
2019-Feb-18 22:01:41 1008.400 3.0 73 -1.4         183.37
2019-Feb-18 23:01:43 1008.600 1.8 76 -2.0         183.37

Temperatura Máxima:13°    Temperatura Mínima:-1°
Presión Máxima:1010.000 Hpa    Presión Mínima:1006.200 Hpa


Volver